Decoded Metar for SBGO (GOIANIA in BRAZIL) (IATA:GYN) | Meteo·Mobile Aviation Weather
aviador You're here:

SBGO Decoded Metar

GOIANIA in BRAZIL
Report Time2018-11-18 20:00:00
UTC Time2018-11-18 20:18:16
Flight Rules vfr VFR
Wind020° at 03 kt
W.Decomp.*RWY 32: 0.6 kt HW 2.9 kt RCW
W.Rank020° ranks 19
Current wind is below 020° avg. (5.2)
Visibility9999 m
Phenomena:N/A
Clouds:Few 035 Hf
Few TCU 050 Hf
Overcast 080 Hf
Expected CloudBase > 1,200 ft AGL from Temp-Dew spread
Ceiling8,000 ft
Temp23°C (ISA +13)
Dew Point20°C (83% RH)
QNH1014 hPa
Density Alt4,229 ft
Elevation2,451 ft
Report Wrong Elevation
Raw Report
SBGO 182000Z 02003KT 9999 FEW035 FEW050TCU OVC080 23/20 Q1014=

Extra information for SBGO:More info

Metar Taf Metar & Taf Last 4 Metars F.Rules Stats Wind Profile Meteogram Temp Stats Airport Information Weather charts Add Link Nearby VenuesMetar ALERT Operation Metar Decoded Social comments